Terminal Aerodrome Forecast
Issued by NWS Dallas/Fort Worth, TX

Home | Current Version | Previous Version | Text Only | Print | Product List | Glossary On
Versions: 1 2 3 4 5 6 7 8 9 10 11 12 13 14 15 16 17 18 19 20 21 22 23 24 25 26 27 28
000
FTUS44 KFWD 031502 AAA
TAFACT
TAF AMD
KACT 031502Z 0315/0412 17009KT P6SM SCT250
     FM031700 17014KT P6SM SCT070
     FM040100 16011KT P6SM SCT250
     FM040800 16010KT P6SM BKN025=

USA.gov is the U.S. government's official web portal to all federal, state and local government web resources and services.